Time;durP1;ratioP1;P1;durP2;ratioP2;P2;SDS_P1;SDS_P2;PMS_P1;PMS_P2;Temp;Humidity;BMP_temperature;BMP_pressure;BME280_temperature;BME280_humidity;BME280_pressure;Samples;Min_cycle;Max_cycle;Signal;HPM_P1;HPM_P2
2023/07/03 00:02:06;;;;;;;17.70;16.00;;;19.40;16.00;;;;;;5055590;28;20220;-77
2023/07/03 00:04:35;;;;;;;17.77;15.90;;;19.40;15.90;;;;;;5054237;28;20223;-77
2023/07/03 00:07:02;;;;;;;17.30;15.50;;;19.40;15.90;;;;;;5056549;28;20169;-77
2023/07/03 00:09:28;;;;;;;16.53;14.93;;;19.40;16.00;;;;;;5056924;28;20465;-78
2023/07/03 00:11:54;;;;;;;17.50;16.00;;;19.40;15.90;;;;;;5052691;28;20420;-79
2023/07/03 00:14:19;;;;;;;21.90;17.50;;;19.40;16.10;;;;;;5034030;28;20463;-78
2023/07/03 00:16:45;;;;;;;20.13;16.73;;;19.40;16.00;;;;;;5031267;28;20210;-79
2023/07/03 00:19:13;;;;;;;18.47;16.77;;;19.40;16.00;;;;;;5037914;28;20173;-77
2023/07/03 00:21:43;;;;;;;18.03;16.13;;;19.60;15.90;;;;;;5034657;28;20254;-76
2023/07/03 00:24:10;;;;;;;18.97;17.10;;;19.50;15.80;;;;;;5033854;28;20439;-78
2023/07/03 00:26:36;;;;;;;18.30;16.30;;;19.50;16.20;;;;;;5034757;28;20438;-77
2023/07/03 00:29:02;;;;;;;17.67;15.87;;;19.50;16.10;;;;;;5035685;28;20921;-79
2023/07/03 00:31:27;;;;;;;17.83;16.33;;;19.40;16.20;;;;;;5033617;28;20788;-77
2023/07/03 00:33:53;;;;;;;17.83;16.13;;;19.40;16.10;;;;;;5033896;28;20287;-77
2023/07/03 00:36:18;;;;;;;18.83;16.97;;;19.40;16.30;;;;;;5033996;28;20643;-77
2023/07/03 00:38:44;;;;;;;17.80;16.10;;;19.40;16.20;;;;;;5030530;28;20172;-78
2023/07/03 00:41:09;;;;;;;17.73;15.90;;;19.40;16.30;;;;;;5033378;28;20208;-78
2023/07/03 00:43:42;;;;;;;18.00;16.20;;;19.40;16.50;;;;;;5035525;28;20193;-78
2023/07/03 00:46:12;;;;;;;16.93;15.53;;;19.30;16.40;;;;;;5032448;28;20589;-78
2023/07/03 00:48:40;;;;;;;18.37;16.80;;;19.30;16.50;;;;;;5037116;28;20411;-78
2023/07/03 00:51:06;;;;;;;18.37;16.60;;;19.30;16.40;;;;;;5030675;28;20502;-78
2023/07/03 00:53:31;;;;;;;18.90;17.00;;;19.30;16.40;;;;;;5032890;28;20427;-78
2023/07/03 00:55:57;;;;;;;16.40;15.00;;;19.30;16.80;;;;;;5033499;28;20957;-77
2023/07/03 00:58:23;;;;;;;18.17;16.27;;;19.20;16.80;;;;;;5033141;28;20244;-78
2023/07/03 01:00:56;;;;;;;18.80;17.10;;;19.20;16.60;;;;;;5034818;28;20192;-79
2023/07/03 01:03:35;;;;;;;18.20;16.37;;;19.20;16.90;;;;;;5032229;28;20200;-78
2023/07/03 01:06:06;;;;;;;18.23;16.63;;;19.20;16.60;;;;;;5033623;28;20424;-78
2023/07/03 01:08:32;;;;;;;18.10;16.30;;;19.30;16.30;;;;;;5031191;28;20426;-78
2023/07/03 01:10:58;;;;;;;17.77;16.10;;;19.20;16.40;;;;;;5034594;28;20506;-78
2023/07/03 01:13:27;;;;;;;17.73;15.90;;;19.20;16.60;;;;;;5033093;28;20459;-78
2023/07/03 01:15:54;;;;;;;18.43;16.70;;;19.20;16.80;;;;;;5035342;28;20674;-79
2023/07/03 01:18:20;;;;;;;18.50;16.70;;;19.20;16.80;;;;;;5036125;28;20941;-77
2023/07/03 01:20:53;;;;;;;17.40;15.90;;;19.30;16.40;;;;;;5033274;28;20455;-78
2023/07/03 01:23:31;;;;;;;18.00;16.30;;;19.30;16.10;;;;;;5030882;28;20447;-79
2023/07/03 01:25:57;;;;;;;19.80;17.90;;;19.30;16.00;;;;;;5031789;28;20418;-79
2023/07/03 01:28:25;;;;;;;18.27;16.30;;;19.30;16.00;;;;;;5032977;28;20473;-79
2023/07/03 01:30:53;;;;;;;17.30;15.70;;;19.30;16.10;;;;;;5032777;28;20407;-78
2023/07/03 01:33:25;;;;;;;18.83;17.23;;;19.40;15.70;;;;;;5031236;28;20431;-78
2023/07/03 01:35:53;;;;;;;17.10;15.60;;;19.30;15.90;;;;;;5031466;28;20937;-78
2023/07/03 01:38:20;;;;;;;18.00;16.20;;;19.40;15.80;;;;;;5033163;28;20477;-78
2023/07/03 01:40:46;;;;;;;17.87;16.07;;;19.40;15.50;;;;;;5032083;28;20567;-79
2023/07/03 01:43:12;;;;;;;16.87;15.57;;;19.40;15.50;;;;;;5030599;28;20972;-78
2023/07/03 01:45:43;;;;;;;17.33;15.87;;;19.40;15.50;;;;;;5030958;28;20412;-78
2023/07/03 01:48:09;;;;;;;18.90;17.10;;;19.50;15.70;;;;;;5032723;28;20407;-77
2023/07/03 01:50:37;;;;;;;17.20;15.30;;;19.40;15.60;;;;;;5034224;28;20412;-77
2023/07/03 01:53:17;;;;;;;17.13;15.53;;;19.40;15.40;;;;;;5030886;28;20263;-77
2023/07/03 01:56:30;;;;;;;17.10;15.50;;;19.40;15.60;;;;;;5029314;28;20423;-77
2023/07/03 01:59:02;;;;;;;18.17;14.87;;;19.40;15.50;;;;;;4936445;29;21019;-77
2023/07/03 02:01:35;;;;;;;15.83;14.40;;;19.40;15.40;;;;;;5024091;28;20502;-79
2023/07/03 02:04:10;;;;;;;16.77;15.30;;;19.40;15.50;;;;;;5033581;28;20466;-78
2023/07/03 02:06:43;;;;;;;16.90;15.33;;;19.50;15.50;;;;;;5031761;28;20411;-78
2023/07/03 02:09:10;;;;;;;20.50;16.30;;;19.40;15.20;;;;;;5018780;28;20750;-78
2023/07/03 02:11:36;;;;;;;17.70;15.97;;;19.50;15.30;;;;;;5010446;28;20412;-76
2023/07/03 02:14:01;;;;;;;17.63;15.90;;;19.50;15.30;;;;;;5021171;28;20459;-77
2023/07/03 02:16:29;;;;;;;16.67;15.30;;;19.50;15.30;;;;;;5031130;28;20542;-78
2023/07/03 02:18:55;;;;;;;17.30;15.60;;;19.40;15.40;;;;;;5030007;28;20200;-78
2023/07/03 02:21:21;;;;;;;17.23;15.83;;;19.50;15.50;;;;;;5030376;28;20470;-78
2023/07/03 02:23:47;;;;;;;17.50;15.80;;;19.50;15.50;;;;;;5029728;28;20585;-79
2023/07/03 02:26:15;;;;;;;17.90;16.23;;;19.40;15.50;;;;;;5032197;28;20240;-78
2023/07/03 02:28:41;;;;;;;18.10;16.40;;;19.50;15.40;;;;;;5030506;28;20546;-78
2023/07/03 02:31:13;;;;;;;16.67;15.10;;;19.50;15.60;;;;;;5033178;28;20419;-78
2023/07/03 02:33:38;;;;;;;17.77;16.07;;;19.50;15.40;;;;;;5031905;28;20783;-78
2023/07/03 02:36:04;;;;;;;16.63;15.40;;;19.60;15.30;;;;;;5032790;28;20518;-78
2023/07/03 02:38:30;;;;;;;16.03;14.63;;;19.60;15.30;;;;;;5037316;28;20232;-77
2023/07/03 02:40:56;;;;;;;18.47;16.80;;;19.60;15.30;;;;;;5041741;28;20451;-79
2023/07/03 02:43:21;;;;;;;17.67;15.93;;;19.70;15.20;;;;;;5033854;28;20196;-78
2023/07/03 02:45:48;;;;;;;17.90;16.13;;;19.80;15.30;;;;;;5036774;28;20188;-79
2023/07/03 02:48:15;;;;;;;17.17;15.43;;;19.80;15.50;;;;;;5036003;28;20659;-79
2023/07/03 02:50:41;;;;;;;17.67;15.97;;;19.80;15.30;;;;;;5038543;28;20475;-78
2023/07/03 02:53:07;;;;;;;17.40;15.97;;;19.80;15.50;;;;;;5038834;28;20485;-80
2023/07/03 02:55:33;;;;;;;18.30;16.40;;;19.80;15.70;;;;;;5034887;28;20268;-78
2023/07/03 02:57:58;;;;;;;15.73;14.20;;;19.80;15.60;;;;;;5035395;28;20454;-78
2023/07/03 03:00:24;;;;;;;17.57;15.93;;;19.90;15.80;;;;;;5030669;28;20271;-78
2023/07/03 03:02:50;;;;;;;16.43;14.87;;;19.90;15.60;;;;;;5018688;28;20545;-78
2023/07/03 03:05:16;;;;;;;16.73;15.23;;;19.90;15.50;;;;;;5022409;28;20430;-79
2023/07/03 03:07:41;;;;;;;18.20;16.40;;;19.80;15.70;;;;;;5033837;28;20207;-78
2023/07/03 03:10:08;;;;;;;20.73;15.83;;;19.70;15.60;;;;;;5033653;28;20416;-78
2023/07/03 03:12:33;;;;;;;18.50;16.77;;;19.60;15.90;;;;;;5032990;28;20223;-77
2023/07/03 03:14:59;;;;;;;17.50;15.93;;;19.60;16.00;;;;;;5034094;28;20476;-79
2023/07/03 03:17:24;;;;;;;18.07;16.47;;;19.60;16.00;;;;;;5034713;28;20184;-79
2023/07/03 03:19:50;;;;;;;17.87;16.27;;;19.70;15.90;;;;;;5036791;28;20180;-78
2023/07/03 03:22:15;;;;;;;17.97;16.27;;;19.60;15.80;;;;;;5036369;28;20204;-78
2023/07/03 03:24:41;;;;;;;17.53;15.83;;;19.60;16.00;;;;;;5037076;28;20196;-79
2023/07/03 03:27:07;;;;;;;18.90;17.20;;;19.60;15.90;;;;;;5037888;28;20184;-77
2023/07/03 03:29:38;;;;;;;18.80;16.93;;;19.60;15.90;;;;;;5038011;28;20180;-79
2023/07/03 03:32:04;;;;;;;18.10;16.30;;;19.60;16.10;;;;;;5036166;28;20231;-75
2023/07/03 03:34:32;;;;;;;17.47;15.83;;;19.60;15.90;;;;;;5038006;28;20494;-78
2023/07/03 03:36:58;;;;;;;17.27;15.70;;;19.60;16.20;;;;;;5035801;28;20965;-77
2023/07/03 03:39:23;;;;;;;18.10;16.33;;;19.60;16.00;;;;;;5036304;28;20450;-79
2023/07/03 03:41:49;;;;;;;17.10;15.70;;;19.60;16.30;;;;;;5035410;28;20211;-78
2023/07/03 03:44:14;;;;;;;17.53;16.03;;;19.60;16.00;;;;;;5035520;28;20196;-79
2023/07/03 03:46:40;;;;;;;17.83;16.23;;;19.70;16.20;;;;;;5034845;28;20207;-79
2023/07/03 03:49:05;;;;;;;18.27;16.37;;;19.60;16.00;;;;;;5033588;28;20657;-78
2023/07/03 03:51:31;;;;;;;17.70;16.10;;;19.50;16.20;;;;;;5036999;28;20254;-81
2023/07/03 03:53:56;;;;;;;18.03;16.50;;;19.50;16.40;;;;;;5034042;28;20561;-78
2023/07/03 03:56:22;;;;;;;17.47;15.87;;;19.40;16.40;;;;;;5036369;28;20246;-79
2023/07/03 03:58:48;;;;;;;18.80;17.30;;;19.50;16.80;;;;;;5034563;28;20576;-78
2023/07/03 04:01:13;;;;;;;17.07;15.53;;;19.40;16.60;;;;;;5032402;28;20565;-78
2023/07/03 04:03:39;;;;;;;17.43;16.03;;;19.40;16.70;;;;;;5033919;28;20193;-78
2023/07/03 04:06:05;;;;;;;17.93;16.37;;;19.40;16.80;;;;;;5034160;28;20540;-77
2023/07/03 04:08:31;;;;;;;17.90;16.30;;;19.40;16.80;;;;;;5033974;28;20176;-79
2023/07/03 04:10:56;;;;;;;18.30;16.60;;;19.30;16.90;;;;;;5032228;28;20442;-78
2023/07/03 04:13:22;;;;;;;18.70;16.83;;;19.40;17.00;;;;;;5035781;28;20242;-80
2023/07/03 04:16:08;;;;;;;18.27;16.70;;;19.50;16.90;;;;;;5015499;28;20188;-80
2023/07/03 04:18:33;;;;;;;18.43;16.33;;;19.40;17.60;;;;;;5000893;28;20200;-78
2023/07/03 04:20:59;;;;;;;16.73;15.10;;;19.40;17.00;;;;;;5013995;28;20470;-78
2023/07/03 04:23:25;;;;;;;19.07;17.20;;;19.30;16.90;;;;;;5016429;28;20193;-80
2023/07/03 04:25:52;;;;;;;17.73;16.23;;;19.30;17.10;;;;;;5015549;28;20273;-80
2023/07/03 04:28:19;;;;;;;18.10;16.53;;;19.40;17.00;;;;;;5016113;28;20288;-80
2023/07/03 04:30:45;;;;;;;18.17;16.50;;;19.40;17.20;;;;;;5014249;28;20831;-79
2023/07/03 04:33:11;;;;;;;17.10;15.53;;;19.40;17.00;;;;;;5012720;28;20428;-79
2023/07/03 04:35:37;;;;;;;17.83;16.27;;;19.40;17.20;;;;;;5014506;28;21069;-80
2023/07/03 04:38:03;;;;;;;17.43;15.77;;;19.40;17.50;;;;;;5015417;28;20183;-80
2023/07/03 04:40:29;;;;;;;18.70;16.97;;;19.40;17.60;;;;;;5014655;28;20181;-80
2023/07/03 04:42:55;;;;;;;18.47;16.77;;;19.40;17.60;;;;;;5013750;28;20578;-80
2023/07/03 04:45:24;;;;;;;18.17;16.37;;;19.40;17.50;;;;;;5014078;28;20412;-79
2023/07/03 04:47:51;;;;;;;18.47;16.77;;;19.40;17.60;;;;;;5017108;28;20420;-79
2023/07/03 04:50:17;;;;;;;17.30;15.70;;;19.40;17.60;;;;;;5013001;28;20419;-80
2023/07/03 04:52:45;;;;;;;17.13;15.60;;;19.40;17.60;;;;;;5012799;28;20809;-78
2023/07/03 04:55:14;;;;;;;17.67;15.90;;;19.40;17.70;;;;;;5015272;28;20420;-80
2023/07/03 04:57:41;;;;;;;18.20;16.27;;;19.40;17.70;;;;;;5011907;28;20432;-79
2023/07/03 05:00:16;;;;;;;16.67;15.30;;;19.30;17.80;;;;;;5015000;28;20412;-79
2023/07/03 05:02:44;;;;;;;16.87;15.23;;;19.30;17.80;;;;;;5013339;28;20408;-79
2023/07/03 05:05:12;;;;;;;16.90;15.40;;;19.30;18.20;;;;;;5013077;28;20413;-78
2023/07/03 05:07:39;;;;;;;27.93;25.73;;;19.40;18.00;;;;;;5011822;28;20441;-78
2023/07/03 05:10:06;;;;;;;18.43;16.60;;;19.40;18.10;;;;;;5011255;28;20408;-78
2023/07/03 05:12:32;;;;;;;18.37;16.53;;;19.30;17.90;;;;;;5011522;28;20424;-79
2023/07/03 05:14:57;;;;;;;17.83;16.20;;;19.30;18.10;;;;;;5011564;28;20994;-78
2023/07/03 05:17:23;;;;;;;19.17;17.30;;;19.30;18.10;;;;;;5010937;28;20196;-79
2023/07/03 05:19:49;;;;;;;18.43;16.73;;;19.30;18.30;;;;;;5011089;28;20638;-78
2023/07/03 05:22:15;;;;;;;18.63;16.77;;;19.30;18.40;;;;;;5012607;28;20460;-78
2023/07/03 05:24:40;;;;;;;18.63;17.07;;;19.40;18.30;;;;;;5014599;28;20467;-80
2023/07/03 05:27:06;;;;;;;19.07;17.17;;;19.40;18.00;;;;;;5013076;28;20173;-79
2023/07/03 05:29:33;;;;;;;18.50;16.90;;;19.40;18.10;;;;;;5012314;28;20174;-79
2023/07/03 05:32:00;;;;;;;18.87;16.00;;;19.50;18.10;;;;;;5012446;28;20212;-80
2023/07/03 05:34:26;;;;;;;16.93;15.40;;;19.50;17.90;;;;;;5013317;28;20523;-78
2023/07/03 05:36:51;;;;;;;17.57;16.10;;;19.50;18.20;;;;;;5012469;28;20443;-79
2023/07/03 05:39:17;;;;;;;16.10;14.70;;;19.50;17.90;;;;;;5010193;28;20435;-79
2023/07/03 05:41:43;;;;;;;17.87;16.33;;;19.50;18.10;;;;;;5011531;28;20717;-79
2023/07/03 05:44:08;;;;;;;16.83;15.23;;;19.50;18.10;;;;;;5007805;28;20213;-75
2023/07/03 05:46:34;;;;;;;17.37;16.07;;;19.60;18.20;;;;;;5006437;28;20774;-77
2023/07/03 05:48:59;;;;;;;17.63;16.03;;;19.60;17.90;;;;;;5011090;28;20187;-77
2023/07/03 05:51:25;;;;;;;17.30;16.00;;;19.60;17.90;;;;;;5012633;28;21460;-77
2023/07/03 05:53:50;;;;;;;16.30;14.90;;;19.60;18.10;;;;;;5010516;28;20526;-77
2023/07/03 05:56:16;;;;;;;17.90;16.03;;;19.70;17.80;;;;;;5011866;28;20220;-77
2023/07/03 05:58:42;;;;;;;17.03;15.27;;;19.80;17.60;;;;;;5011575;28;20736;-77
2023/07/03 06:01:08;;;;;;;15.80;14.50;;;19.80;17.70;;;;;;5010942;28;20289;-77
2023/07/03 06:03:33;;;;;;;16.13;14.83;;;19.90;17.50;;;;;;5012975;28;20436;-78
2023/07/03 06:05:59;;;;;;;16.77;15.40;;;20.00;17.40;;;;;;5009567;28;20177;-77
2023/07/03 06:08:24;;;;;;;17.87;15.67;;;20.00;17.40;;;;;;5014914;28;20180;-78
2023/07/03 06:10:52;;;;;;;16.30;14.80;;;20.00;17.50;;;;;;5015098;28;20618;-78
2023/07/03 06:13:18;;;;;;;15.10;13.90;;;19.90;17.60;;;;;;5014159;28;20193;-78
2023/07/03 06:15:43;;;;;;;16.87;15.07;;;19.90;17.70;;;;;;5013922;28;20439;-79
2023/07/03 06:18:09;;;;;;;16.43;15.00;;;19.90;17.80;;;;;;5012801;28;20428;-78
2023/07/03 06:20:35;;;;;;;16.53;13.67;;;20.00;17.70;;;;;;5012109;28;20643;-77
2023/07/03 06:23:01;;;;;;;15.57;14.20;;;20.00;17.50;;;;;;5020512;28;20223;-78
2023/07/03 06:25:26;;;;;;;14.80;13.30;;;20.00;17.50;;;;;;5030533;28;20411;-78
2023/07/03 06:27:52;;;;;;;14.60;13.50;;;20.00;17.50;;;;;;5031251;28;20187;-78
2023/07/03 06:30:18;;;;;;;14.53;12.93;;;20.10;17.90;;;;;;5032511;28;20173;-78
2023/07/03 06:32:43;;;;;;;16.40;14.73;;;20.10;17.30;;;;;;5030250;28;20254;-78
2023/07/03 06:35:09;;;;;;;15.53;13.90;;;20.10;16.90;;;;;;5032598;28;20173;-78
2023/07/03 06:37:35;;;;;;;15.37;13.77;;;20.10;17.40;;;;;;5027388;28;20177;-78
2023/07/03 06:40:00;;;;;;;14.63;13.27;;;20.10;17.10;;;;;;5035437;28;20578;-77
2023/07/03 06:42:36;;;;;;;14.40;13.07;;;20.30;16.80;;;;;;5023533;28;20204;-78
2023/07/03 06:45:03;;;;;;;15.23;13.90;;;20.20;16.40;;;;;;5017714;28;20520;-80
2023/07/03 06:47:28;;;;;;;15.43;13.60;;;20.10;16.80;;;;;;5018949;28;20405;-78
2023/07/03 06:49:54;;;;;;;16.67;13.60;;;20.20;17.10;;;;;;5020440;28;20416;-78
2023/07/03 06:52:19;;;;;;;16.70;15.10;;;20.20;16.60;;;;;;5019331;28;20741;-78
2023/07/03 06:54:47;;;;;;;13.70;12.60;;;20.40;16.80;;;;;;5020159;28;20561;-78
2023/07/03 06:57:12;;;;;;;14.93;13.40;;;20.40;16.70;;;;;;5019019;28;20277;-78
2023/07/03 06:59:38;;;;;;;14.53;13.17;;;20.30;16.50;;;;;;5020085;28;20443;-78
2023/07/03 07:02:05;;;;;;;14.90;13.50;;;20.30;16.70;;;;;;5019436;28;20842;-79
2023/07/03 07:04:31;;;;;;;14.27;12.77;;;20.20;16.60;;;;;;5019762;28;20224;-78
2023/07/03 07:06:56;;;;;;;19.07;17.20;;;20.30;16.60;;;;;;5020261;28;20741;-78
2023/07/03 07:09:22;;;;;;;14.70;13.50;;;20.40;16.80;;;;;;5019296;28;20253;-78
2023/07/03 07:11:47;;;;;;;15.13;12.97;;;20.40;16.60;;;;;;5018992;28;20169;-78
2023/07/03 07:14:13;;;;;;;18.97;12.90;;;20.40;16.30;;;;;;5019547;28;20339;-79
2023/07/03 07:16:40;;;;;;;13.40;12.20;;;20.40;16.40;;;;;;5019507;28;20214;-78
2023/07/03 07:19:09;;;;;;;17.20;15.07;;;20.40;16.80;;;;;;5019100;28;20196;-78
2023/07/03 07:21:41;;;;;;;14.30;12.90;;;20.40;16.60;;;;;;5019091;28;20541;-79
2023/07/03 07:24:19;;;;;;;14.30;13.10;;;20.50;16.60;;;;;;5019010;28;20995;-78
2023/07/03 07:26:45;;;;;;;14.37;13.23;;;20.50;16.40;;;;;;5018105;28;20420;-78
2023/07/03 07:29:11;;;;;;;17.77;13.90;;;20.50;16.80;;;;;;5017727;28;20418;-79
2023/07/03 07:31:36;;;;;;;13.93;12.67;;;20.50;16.70;;;;;;5019368;28;20848;-79
2023/07/03 07:34:04;;;;;;;14.97;13.43;;;20.60;16.70;;;;;;5017475;28;20201;-78
2023/07/03 07:36:30;;;;;;;14.83;13.37;;;20.60;16.60;;;;;;5016987;28;20174;-76
2023/07/03 07:38:55;;;;;;;15.00;13.67;;;20.60;16.60;;;;;;5014719;28;20412;-76
2023/07/03 07:41:21;;;;;;;15.70;14.03;;;20.60;16.70;;;;;;5015523;28;20467;-77
2023/07/03 07:43:48;;;;;;;13.80;12.60;;;20.60;16.70;;;;;;5015160;28;20197;-74
2023/07/03 07:46:14;;;;;;;14.03;12.70;;;20.70;16.70;;;;;;5014268;28;20542;-75
2023/07/03 07:48:40;;;;;;;15.43;14.00;;;20.50;17.00;;;;;;5013847;28;20507;-75
2023/07/03 07:51:11;;;;;;;14.20;12.93;;;20.40;17.30;;;;;;5015433;28;20455;-75
2023/07/03 07:53:37;;;;;;;15.20;13.70;;;20.40;17.50;;;;;;5014697;28;20520;-75
2023/07/03 07:56:05;;;;;;;16.43;14.83;;;20.40;17.70;;;;;;5014857;28;20779;-76
2023/07/03 07:58:30;;;;;;;14.60;13.20;;;20.40;17.50;;;;;;5015269;28;20412;-76
2023/07/03 08:00:57;;;;;;;14.63;13.47;;;20.40;17.50;;;;;;5014900;28;20448;-77
2023/07/03 08:03:23;;;;;;;15.27;14.07;;;20.50;17.70;;;;;;5014250;28;20390;-75
2023/07/03 08:05:49;;;;;;;15.50;13.90;;;20.50;17.40;;;;;;5014610;28;20759;-75
2023/07/03 08:08:15;;;;;;;16.30;12.97;;;20.60;17.70;;;;;;5015140;28;20415;-74
2023/07/03 08:10:41;;;;;;;15.30;13.80;;;20.60;17.40;;;;;;5013252;28;20412;-74
2023/07/03 08:13:07;;;;;;;15.93;14.13;;;20.60;17.40;;;;;;5013328;28;20499;-76
2023/07/03 08:15:32;;;;;;;16.07;14.43;;;20.70;17.10;;;;;;5014557;28;20181;-75
2023/07/03 08:17:58;;;;;;;14.27;12.80;;;20.70;17.10;;;;;;5014313;28;20499;-74
2023/07/03 08:20:23;;;;;;;14.13;12.90;;;20.70;16.40;;;;;;5014175;28;20177;-75
2023/07/03 08:22:49;;;;;;;13.40;12.40;;;20.70;15.80;;;;;;5012715;28;20300;-76
2023/07/03 08:25:15;;;;;;;18.03;14.53;;;20.80;16.20;;;;;;5013915;28;20181;-74
2023/07/03 08:27:46;;;;;;;15.87;14.07;;;20.90;17.40;;;;;;5012932;28;20647;-75
2023/07/03 08:30:12;;;;;;;16.20;14.67;;;20.90;18.00;;;;;;5014322;28;20223;-74
2023/07/03 08:32:37;;;;;;;15.60;14.10;;;20.90;18.10;;;;;;5013601;28;20412;-75
2023/07/03 08:35:03;;;;;;;15.03;13.70;;;20.90;18.00;;;;;;5013216;28;20420;-75
2023/07/03 08:37:29;;;;;;;15.30;13.83;;;20.90;18.00;;;;;;5012832;28;20225;-75
2023/07/03 08:39:55;;;;;;;15.63;13.70;;;20.90;18.00;;;;;;5014011;28;20224;-76
2023/07/03 08:42:35;;;;;;;15.50;14.10;;;20.90;18.10;;;;;;5013304;28;20962;-75
2023/07/03 08:45:03;;;;;;;15.73;14.23;;;20.90;18.00;;;;;;5013762;28;20161;-74
2023/07/03 08:47:31;;;;;;;16.80;15.10;;;20.90;18.20;;;;;;5013959;28;20408;-75
2023/07/03 08:49:59;;;;;;;15.60;14.00;;;20.90;18.30;;;;;;5013709;28;20779;-75
2023/07/03 08:52:42;;;;;;;17.80;15.23;;;20.80;18.60;;;;;;5011977;28;20467;-75
2023/07/03 08:55:14;;;;;;;16.10;13.90;;;20.70;18.70;;;;;;5011888;28;20471;-75
2023/07/03 08:57:39;;;;;;;17.30;14.10;;;20.70;18.50;;;;;;5012927;28;20404;-77
2023/07/03 09:00:12;;;;;;;15.43;14.20;;;20.80;18.70;;;;;;5012129;28;20515;-76
2023/07/03 09:02:45;;;;;;;14.97;13.47;;;20.80;18.80;;;;;;5013031;28;20714;-76
2023/07/03 09:05:32;;;;;;;15.23;13.90;;;20.80;18.30;;;;;;5013603;28;20392;-76
2023/07/03 09:08:05;;;;;;;18.73;14.00;;;20.80;18.10;;;;;;5013395;28;20447;-75
2023/07/03 09:10:33;;;;;;;16.70;15.00;;;20.80;18.00;;;;;;5013096;28;20842;-76
2023/07/03 09:13:19;;;;;;;15.53;13.90;;;20.70;17.90;;;;;;5012833;28;20487;-76
2023/07/03 09:16:09;;;;;;;14.70;13.30;;;20.70;18.20;;;;;;5013034;28;20397;-75
2023/07/03 09:18:40;;;;;;;15.57;13.73;;;20.60;18.10;;;;;;5011094;28;20415;-75
2023/07/03 09:21:08;;;;;;;14.77;12.93;;;20.70;18.10;;;;;;5012381;28;20459;-79
2023/07/03 09:23:46;;;;;;;14.20;12.87;;;20.80;18.20;;;;;;5015253;28;20942;-77
2023/07/03 09:26:21;;;;;;;14.63;13.13;;;20.90;18.30;;;;;;5015151;28;20401;-77
2023/07/03 09:28:49;;;;;;;13.70;12.20;;;20.90;17.50;;;;;;5013121;28;20408;-77
2023/07/03 09:31:15;;;;;;;14.13;12.80;;;20.90;17.40;;;;;;5012419;28;20420;-76
2023/07/03 09:33:41;;;;;;;15.07;13.63;;;20.90;17.70;;;;;;5013113;28;21024;-76
2023/07/03 09:36:28;;;;;;;15.70;13.13;;;20.80;17.00;;;;;;5013666;28;20475;-76
2023/07/03 09:38:54;;;;;;;14.20;13.00;;;20.90;17.40;;;;;;5011216;28;20424;-77
2023/07/03 09:41:29;;;;;;;13.73;12.70;;;21.00;16.70;;;;;;5011583;28;20514;-77
2023/07/03 09:43:55;;;;;;;30.43;25.10;;;21.10;15.50;;;;;;5014826;28;20185;-77
2023/07/03 09:46:22;;;;;;;26.93;21.10;;;21.20;15.70;;;;;;5032588;28;20411;-78
2023/07/03 09:48:48;;;;;;;14.67;13.27;;;21.30;15.40;;;;;;5030718;28;20455;-76
2023/07/03 09:51:27;;;;;;;14.60;13.10;;;21.40;14.00;;;;;;5030241;28;20455;-76
2023/07/03 09:53:56;;;;;;;14.63;13.20;;;21.50;14.10;;;;;;5032048;28;20196;-76
2023/07/03 09:56:23;;;;;;;13.67;12.57;;;21.60;13.30;;;;;;5030711;28;20821;-76
2023/07/03 09:58:58;;;;;;;12.40;11.37;;;21.70;13.00;;;;;;5033065;28;20407;-76
2023/07/03 10:01:27;;;;;;;15.93;12.93;;;21.90;12.90;;;;;;5030802;28;20462;-76
2023/07/03 10:04:06;;;;;;;13.07;11.93;;;22.00;12.50;;;;;;5032925;28;20432;-77
2023/07/03 10:06:32;;;;;;;12.57;11.60;;;22.10;12.00;;;;;;5033539;28;20437;-76
2023/07/03 10:09:05;;;;;;;12.30;11.17;;;22.10;11.80;;;;;;5035462;28;20857;-76
2023/07/03 10:11:58;;;;;;;12.77;11.57;;;22.10;11.20;;;;;;5042069;28;20427;-75
2023/07/03 10:14:29;;;;;;;11.90;10.70;;;22.00;11.20;;;;;;5041320;28;20830;-77
2023/07/03 10:16:55;;;;;;;12.87;10.60;;;22.10;10.80;;;;;;5037885;28;20407;-77
2023/07/03 10:19:21;;;;;;;12.10;10.57;;;22.10;10.70;;;;;;5037954;28;20418;-76
2023/07/03 10:21:48;;;;;;;11.80;10.60;;;22.20;10.70;;;;;;5034823;28;20235;-76
2023/07/03 10:24:15;;;;;;;12.90;10.87;;;22.20;10.40;;;;;;5033197;28;20447;-78
2023/07/03 10:26:48;;;;;;;11.80;10.37;;;22.30;10.70;;;;;;5035250;28;20407;-78
2023/07/03 10:29:26;;;;;;;11.60;10.60;;;22.20;10.70;;;;;;5035310;28;20417;-77
2023/07/03 10:32:03;;;;;;;12.10;11.10;;;22.20;10.50;;;;;;5034590;28;20439;-77
2023/07/03 10:34:50;;;;;;;11.97;9.50;;;22.20;10.40;;;;;;5034359;28;20437;-77
2023/07/03 10:37:19;;;;;;;11.27;10.30;;;22.40;10.40;;;;;;5031963;28;20795;-76
2023/07/03 10:39:49;;;;;;;12.87;9.60;;;22.60;9.70;;;;;;5034223;28;20415;-78
2023/07/03 10:42:31;;;;;;;8.27;7.57;;;22.90;9.50;;;;;;5035569;28;20525;-77
2023/07/03 10:45:06;;;;;;;7.43;6.93;;;23.10;7.60;;;;;;5030541;28;20506;-77
2023/07/03 10:47:58;;;;;;;7.80;7.20;;;23.20;7.80;;;;;;5013876;28;20415;-77
2023/07/03 10:50:36;;;;;;;6.87;6.40;;;23.50;7.20;;;;;;5007649;28;20424;-76
2023/07/03 10:53:05;;;;;;;7.30;6.57;;;23.70;7.20;;;;;;5011560;28;20435;-76
2023/07/03 10:55:45;;;;;;;7.40;6.63;;;23.70;7.30;;;;;;5010447;28;20784;-75
2023/07/03 10:58:29;;;;;;;7.33;6.37;;;23.60;7.80;;;;;;5011884;28;20880;-75
2023/07/03 11:01:12;;;;;;;8.30;7.60;;;23.40;8.10;;;;;;5007860;28;20463;-76
2023/07/03 11:03:53;;;;;;;12.70;6.97;;;23.40;8.30;;;;;;5010334;28;20489;-76
2023/07/03 11:07:00;;;;;;;7.90;7.30;;;23.40;8.70;;;;;;5011830;28;20416;-76
2023/07/03 11:09:43;;;;;;;7.50;6.90;;;23.50;8.00;;;;;;4981203;28;20416;-76
2023/07/03 11:12:17;;;;;;;7.83;7.07;;;23.40;8.00;;;;;;5009837;28;20934;-75
2023/07/03 11:15:15;;;;;;;7.53;6.80;;;23.50;8.40;;;;;;5010832;28;20875;-76
2023/07/03 11:18:05;;;;;;;6.83;6.30;;;23.50;7.60;;;;;;5011482;28;20460;-76
2023/07/03 11:21:03;;;;;;;7.30;6.70;;;23.40;8.00;;;;;;5009737;28;20432;-77
2023/07/03 11:24:01;;;;;;;7.83;7.23;;;23.30;8.70;;;;;;4982098;28;20496;-76
2023/07/03 11:26:39;;;;;;;8.90;6.83;;;23.30;8.20;;;;;;4991066;28;20425;-75
2023/07/03 11:29:07;;;;;;;7.47;6.80;;;23.20;8.20;;;;;;4995144;28;20466;-75
2023/07/03 11:31:34;;;;;;;7.70;7.10;;;23.30;8.20;;;;;;4995356;28;20527;-76
2023/07/03 11:34:02;;;;;;;13.40;7.63;;;23.40;8.50;;;;;;4995597;28;20433;-75
2023/07/03 11:36:42;;;;;;;7.90;7.10;;;23.30;8.40;;;;;;4994534;28;20799;-75
2023/07/03 11:39:24;;;;;;;8.87;8.17;;;23.30;8.60;;;;;;4995073;28;20938;-75
2023/07/03 11:42:10;;;;;;;9.33;8.43;;;23.30;8.80;;;;;;4995461;28;20841;-77
2023/07/03 11:44:42;;;;;;;7.70;7.00;;;23.40;8.20;;;;;;5005152;28;20454;-75
2023/07/03 11:47:18;;;;;;;7.53;7.03;;;23.40;7.90;;;;;;5015067;28;20419;-75
2023/07/03 11:49:50;;;;;;;8.93;8.10;;;23.50;8.20;;;;;;5015034;28;20396;-75
2023/07/03 11:52:27;;;;;;;8.07;7.47;;;23.50;8.50;;;;;;5014504;28;20494;-73
2023/07/03 11:55:07;;;;;;;8.60;7.90;;;23.40;9.10;;;;;;5014480;28;20558;-74
2023/07/03 11:57:36;;;;;;;8.93;7.83;;;23.40;10.30;;;;;;5014555;28;20494;-74
2023/07/03 12:00:30;;;;;;;9.13;8.43;;;23.30;10.90;;;;;;5014125;28;20420;-74
2023/07/03 12:03:01;;;;;;;11.23;9.70;;;23.20;11.60;;;;;;4996184;28;20460;-74
2023/07/03 12:05:42;;;;;;;10.70;9.77;;;23.10;12.00;;;;;;5013861;28;20434;-74
2023/07/03 12:08:41;;;;;;;10.43;9.37;;;23.00;12.50;;;;;;5012831;28;20515;-76
2023/07/03 12:11:07;;;;;;;11.13;10.33;;;22.90;12.60;;;;;;5012632;28;20435;-74
2023/07/03 12:13:42;;;;;;;11.43;10.40;;;22.80;12.80;;;;;;5014078;28;20487;-74
2023/07/03 12:16:26;;;;;;;9.53;8.73;;;22.80;13.00;;;;;;5013577;28;20404;-73
2023/07/03 12:18:58;;;;;;;11.83;10.67;;;22.70;12.60;;;;;;5012643;28;20482;-77
2023/07/03 12:21:25;;;;;;;10.37;8.73;;;22.70;13.50;;;;;;5013388;28;20515;-77
2023/07/03 12:23:51;;;;;;;10.90;10.03;;;22.70;13.20;;;;;;5013171;28;20440;-77
2023/07/03 12:26:17;;;;;;;11.60;10.40;;;22.70;13.60;;;;;;5014808;28;20832;-76
2023/07/03 12:28:44;;;;;;;9.73;8.87;;;22.80;13.10;;;;;;5014781;28;20984;-76
2023/07/03 12:31:09;;;;;;;10.73;9.63;;;23.00;12.20;;;;;;5014147;28;20502;-78
2023/07/03 12:33:35;;;;;;;15.23;8.50;;;23.10;12.50;;;;;;5015464;28;20432;-77
2023/07/03 12:36:00;;;;;;;9.47;8.70;;;23.00;12.60;;;;;;5016221;28;20186;-78
2023/07/03 12:38:26;;;;;;;8.97;8.27;;;23.00;12.50;;;;;;5016029;28;20169;-77
2023/07/03 12:40:51;;;;;;;9.07;8.30;;;22.90;12.90;;;;;;5015156;28;20189;-77
2023/07/03 12:43:18;;;;;;;9.07;8.47;;;22.80;12.30;;;;;;5014356;28;20201;-77